| time (UTC) | temp F | wind direction | speed MPH | gust MPH | rain 1hr in | rain 24hr in | rain mn in | humidity % | barometer mb |
| 20260507123009 | 69 | 61 | 7.0 | 13.0 | 0.00 | 0.00 | 0.00 | 63 | 1011.5 |
| 20260507120015 | 66 | 46 | 8.0 | 14.0 | 0.00 | 0.00 | 0.00 | 73 | 1011.8 |
| 20260507114008 | 66 | 51 | 9.0 | 14.0 | 0.00 | 0.00 | 0.00 | 73 | 1012.1 |
| 20260507113008 | 66 | 44 | 11.0 | 17.0 | 0.00 | 0.00 | 0.00 | 69 | 1012.0 |
| 20260507112008 | 67 | 56 | 12.0 | 19.0 | 0.00 | 0.00 | 0.00 | 71 | 1012.2 |
| 20260507111009 | 68 | 61 | 9.0 | 15.0 | 0.00 | 0.00 | 0.00 | 68 | 1012.3 |
| 20260507105008 | 68 | 77 | 9.0 | 15.0 | 0.00 | 0.00 | 0.00 | 57 | 1012.5 |
| 20260507104011 | 68 | 60 | 12.0 | 18.0 | 0.00 | 0.00 | 0.00 | 60 | 1012.4 |
| 20260507103008 | 68 | 54 | 13.0 | 20.0 | 0.00 | 0.00 | 0.00 | 66 | 1012.3 |
| 20260507102008 | 69 | 51 | 16.0 | 23.0 | 0.00 | 0.00 | 0.00 | 62 | 1012.3 |
| 20260507100010 | 73 | 59 | 11.0 | 18.0 | 0.00 | 0.00 | 0.00 | 52 | 1012.3 |
| 20260507095008 | 73 | 52 | 10.0 | 15.0 | 0.00 | 0.00 | 0.00 | 54 | 1012.3 |
| 20260507094009 | 72 | 77 | 11.0 | 19.0 | 0.00 | 0.00 | 0.00 | 54 | 1012.3 |
| 20260507092008 | 71 | 54 | 11.0 | 17.0 | 0.00 | 0.00 | 0.00 | 55 | 1012.3 |
| 20260507091008 | 71 | 47 | 8.0 | 12.0 | 0.00 | 0.00 | 0.00 | 55 | 1012.3 |
| 20260507090022 | 71 | 37 | 8.0 | 13.0 | 0.00 | 0.00 | 0.00 | 57 | 1012.2 |
| 20260507085008 | 71 | 35 | 9.0 | 15.0 | 0.00 | 0.00 | 0.00 | 56 | 1012.3 |
| 20260507084009 | 72 | 23 | 7.0 | 14.0 | 0.00 | 0.00 | 0.00 | 57 | 1012.3 |
| 20260507075011 | 67 | 43 | 5.0 | 8.0 | 0.00 | 0.00 | 0.00 | 57 | 1012.4 |
| 20260507074008 | 67 | 40 | 6.0 | 9.0 | 0.00 | 0.00 | 0.00 | 57 | 1012.5 |
| 20260507073009 | 68 | 39 | 5.0 | 10.0 | 0.00 | 0.00 | 0.00 | 56 | 1012.4 |
| 20260507072008 | 67 | 24 | 5.0 | 8.0 | 0.00 | 0.00 | 0.00 | 54 | 1012.4 |
| 20260507071009 | 66 | 39 | 5.0 | 9.0 | 0.00 | 0.00 | 0.00 | 53 | 1012.2 |
| 20260507070013 | 66 | 36 | 3.0 | 5.0 | 0.00 | 0.00 | 0.00 | 54 | 1012.1 |
| 20260507065009 | 64 | 325 | 2.0 | 4.0 | 0.00 | 0.00 | 0.00 | 56 | 1012.1 |
| 20260507063009 | 63 | 338 | 3.0 | 5.0 | 0.00 | 0.00 | 0.00 | 61 | 1011.9 |
| 20260507062010 | 62 | 355 | 3.0 | 5.0 | 0.00 | 0.00 | 0.00 | 65 | 1011.9 |
| 20260507061008 | 60 | 339 | 3.0 | 6.0 | 0.00 | 0.00 | 0.00 | 69 | 1011.8 |
| 20260507060011 | 58 | 311 | 3.0 | 6.0 | 0.00 | 0.00 | 0.00 | 72 | 1011.6 |
| 20260507053022 | 56 | 113 | 1.0 | 3.0 | 0.00 | 0.00 | 0.00 | 77 | 1011.7 |
| 20260507051008 | 56 | 255 | 2.0 | 4.0 | 0.00 | 0.00 | 0.00 | 76 | 1011.6 |
| 20260507050011 | 56 | 302 | 6.0 | 9.0 | 0.00 | 0.00 | 0.00 | 76 | 1011.4 |
| 20260507045008 | 56 | 312 | 5.0 | 9.0 | 0.00 | 0.00 | 0.00 | 76 | 1011.2 |
| 20260507044008 | 56 | 308 | 6.0 | 10.0 | 0.00 | 0.00 | 0.00 | 76 | 1011.0 |
| 20260507043021 | 56 | 309 | 6.0 | 9.0 | 0.00 | 0.00 | 0.00 | 76 | 1011.0 |
| 20260507042022 | 56 | 306 | 7.0 | 10.0 | 0.00 | 0.00 | 0.00 | 76 | 1010.9 |
| 20260507041009 | 57 | 307 | 5.0 | 9.0 | 0.00 | 0.00 | 0.00 | 75 | 1011.0 |
| 20260507035007 | 57 | 308 | 7.0 | 10.0 | 0.00 | 0.00 | 0.00 | 75 | 1011.0 |
| 20260507034009 | 57 | 308 | 7.0 | 11.0 | 0.00 | 0.00 | 0.00 | 75 | 1011.0 |
| 20260507033020 | 58 | 313 | 8.0 | 11.0 | 0.00 | 0.00 | 0.00 | 75 | 1011.2 |
| 20260507032008 | 58 | 314 | 6.0 | 10.0 | 0.00 | 0.00 | 0.00 | 74 | 1011.3 |
| 20260507031008 | 58 | 321 | 5.0 | 8.0 | 0.00 | 0.00 | 0.00 | 74 | 1011.3 |
| 20260507030010 | 58 | 312 | 4.0 | 7.0 | 0.00 | 0.00 | 0.00 | 75 | 1011.4 |
| 20260507025008 | 58 | 314 | 6.0 | 10.0 | 0.00 | 0.00 | 0.00 | 75 | 1011.5 |
| 20260507024008 | 58 | 313 | 7.0 | 11.0 | 0.00 | 0.00 | 0.00 | 75 | 1011.5 |
| 20260507023020 | 58 | 300 | 5.0 | 8.0 | 0.00 | 0.00 | 0.00 | 75 | 1011.5 |
| 20260507022027 | 58 | 290 | 4.0 | 7.0 | 0.00 | 0.00 | 0.00 | 75 | 1011.5 |
| 20260507021007 | 58 | 295 | 4.0 | 6.0 | 0.00 | 0.00 | 0.00 | 74 | 1011.5 |
| 20260507020010 | 58 | 310 | 5.0 | 8.0 | 0.00 | 0.00 | 0.00 | 74 | 1011.5 |
| 20260507015008 | 58 | 308 | 6.0 | 9.0 | 0.00 | 0.00 | 0.00 | 74 | 1011.4 |
| 20260507014009 | 58 | 308 | 6.0 | 9.0 | 0.00 | 0.00 | 0.00 | 74 | 1011.5 |
| 20260507013011 | 58 | 301 | 5.0 | 9.0 | 0.00 | 0.00 | 0.00 | 74 | 1011.5 |
| 20260507012008 | 58 | 288 | 6.0 | 9.0 | 0.00 | 0.00 | 0.00 | 74 | 1011.6 |
| 20260507011009 | 59 | 301 | 5.0 | 7.0 | 0.00 | 0.00 | 0.00 | 72 | 1011.6 |
| 20260507004008 | 59 | 311 | 7.0 | 10.0 | 0.00 | 0.00 | 0.00 | 72 | 1011.7 |
| 20260507002008 | 60 | 308 | 5.0 | 7.0 | 0.00 | 0.00 | 0.00 | 72 | 1011.9 |
| 20260507000015 | 61 | 297 | 4.0 | 6.0 | 0.00 | 0.00 | 0.00 | 69 | 1012.1 |
| 20260506235007 | 61 | 326 | 3.0 | 4.0 | 0.00 | 0.00 | 0.00 | 69 | 1012.1 |
| 20260506234008 | 61 | 312 | 3.0 | 5.0 | 0.00 | 0.00 | 0.00 | 69 | 1012.2 |
| 20260506233010 | 61 | 298 | 5.0 | 7.0 | 0.00 | 0.00 | 0.00 | 69 | 1012.2 |
| 20260506232009 | 62 | 296 | 2.0 | 4.0 | 0.00 | 0.00 | 0.00 | 67 | 1012.3 |
| 20260506231007 | 62 | 312 | 3.0 | 4.0 | 0.00 | 0.00 | 0.00 | 66 | 1012.3 |
| 20260506230008 | 62 | 296 | 3.0 | 4.0 | 0.00 | 0.00 | 0.00 | 66 | 1012.3 |
| 20260506225007 | 63 | 0 | 2.0 | 3.0 | 0.00 | 0.00 | 0.00 | 65 | 1012.4 |
| 20260506224009 | 63 | 344 | 3.0 | 4.0 | 0.00 | 0.00 | 0.00 | 64 | 1012.3 |
| 20260506223010 | 63 | 338 | 3.0 | 5.0 | 0.00 | 0.00 | 0.00 | 64 | 1012.4 |
| 20260506222008 | 63 | 323 | 2.0 | 4.0 | 0.00 | 0.00 | 0.00 | 64 | 1012.3 |
| 20260506220008 | 63 | 315 | 1.0 | 2.0 | 0.00 | 0.00 | 0.00 | 64 | 1012.3 |
| 20260506215007 | 63 | 45 | 1.0 | 2.0 | 0.00 | 0.00 | 0.00 | 63 | 1012.4 |
| 20260506214008 | 63 | 93 | 2.0 | 3.0 | 0.00 | 0.00 | 0.00 | 61 | 1012.3 |
| 20260506212007 | 63 | 56 | 3.0 | 4.0 | 0.00 | 0.00 | 0.00 | 62 | 1012.2 |
| 20260506211008 | 63 | 75 | 3.0 | 6.0 | 0.00 | 0.00 | 0.00 | 62 | 1012.1 |
| 20260506205011 | 63 | 67 | 4.0 | 6.0 | 0.00 | 0.00 | 0.00 | 62 | 1012.0 |
| 20260506203019 | 64 | 87 | 2.0 | 4.0 | 0.00 | 0.00 | 0.00 | 63 | 1011.8 |
| 20260506202007 | 64 | 86 | 3.0 | 5.0 | 0.00 | 0.00 | 0.00 | 63 | 1011.7 |
| 20260506201009 | 64 | 69 | 3.0 | 6.0 | 0.00 | 0.00 | 0.00 | 62 | 1011.5 |
| 20260506200022 | 64 | 95 | 4.0 | 6.0 | 0.00 | 0.00 | 0.00 | 61 | 1011.5 |
| 20260506195008 | 64 | 96 | 3.0 | 6.0 | 0.00 | 0.00 | 0.00 | 62 | 1011.4 |
| 20260506194009 | 64 | 71 | 4.0 | 7.0 | 0.00 | 0.00 | 0.00 | 62 | 1011.3 |
| 20260506193007 | 64 | 96 | 4.0 | 7.0 | 0.00 | 0.00 | 0.00 | 62 | 1011.2 |
| 20260506192009 | 64 | 97 | 4.0 | 7.0 | 0.00 | 0.00 | 0.00 | 62 | 1011.0 |
| 20260506191007 | 64 | 82 | 5.0 | 8.0 | 0.00 | 0.00 | 0.00 | 61 | 1011.0 |
| 20260506190026 | 65 | 92 | 5.0 | 8.0 | 0.00 | 0.00 | 0.00 | 62 | 1010.9 |
| 20260506185008 | 65 | 87 | 5.0 | 8.0 | 0.00 | 0.00 | 0.00 | 61 | 1010.8 |
| 20260506183006 | 65 | 99 | 5.0 | 7.0 | 0.00 | 0.00 | 0.00 | 59 | 1010.7 |
| 20260506182008 | 65 | 111 | 5.0 | 9.0 | 0.00 | 0.00 | 0.00 | 59 | 1010.6 |
| 20260506181025 | 65 | 112 | 6.0 | 9.0 | 0.00 | 0.00 | 0.00 | 58 | 1010.5 |
| 20260506180009 | 65 | 116 | 6.0 | 11.0 | 0.00 | 0.00 | 0.00 | 58 | 1010.4 |
| 20260506175009 | 65 | 120 | 8.0 | 12.0 | 0.00 | 0.00 | 0.00 | 57 | 1010.4 |
| 20260506174008 | 66 | 95 | 6.0 | 9.0 | 0.00 | 0.00 | 0.00 | 58 | 1010.4 |
| 20260506173019 | 67 | 82 | 7.0 | 12.0 | 0.00 | 0.00 | 0.00 | 56 | 1010.5 |
| 20260506172008 | 67 | 74 | 8.0 | 12.0 | 0.00 | 0.00 | 0.00 | 55 | 1010.5 |
| 20260506170009 | 68 | 95 | 9.0 | 14.0 | 0.00 | 0.00 | 0.00 | 55 | 1010.6 |
| 20260506165008 | 69 | 97 | 7.0 | 12.0 | 0.00 | 0.00 | 0.00 | 52 | 1010.8 |
| 20260506164008 | 68 | 94 | 7.0 | 11.0 | 0.00 | 0.00 | 0.00 | 53 | 1010.6 |
| 20260506163019 | 68 | 92 | 7.0 | 11.0 | 0.00 | 0.00 | 0.00 | 53 | 1010.7 |
| 20260506162007 | 67 | 98 | 8.0 | 13.0 | 0.00 | 0.00 | 0.00 | 51 | 1010.7 |
| 20260506161009 | 68 | 96 | 8.0 | 14.0 | 0.00 | 0.00 | 0.00 | 53 | 1010.6 |
| 20260506160032 | 68 | 113 | 8.0 | 12.0 | 0.00 | 0.00 | 0.00 | 53 | 1010.6 |
| 20260506155008 | 67 | 103 | 7.0 | 11.0 | 0.00 | 0.00 | 0.00 | 53 | 1010.6 |
| 20260506154008 | 68 | 83 | 8.0 | 14.0 | 0.00 | 0.00 | 0.00 | 55 | 1010.6 |
| 20260506153007 | 69 | 89 | 11.0 | 17.0 | 0.00 | 0.00 | 0.00 | 53 | 1010.5 |
| 20260506152007 | 69 | 106 | 11.0 | 18.0 | 0.00 | 0.00 | 0.00 | 52 | 1010.3 |
| 20260506151010 | 67 | 103 | 11.0 | 16.0 | 0.00 | 0.00 | 0.00 | 55 | 1010.1 |
| 20260506145008 | 67 | 116 | 6.0 | 9.0 | 0.00 | 0.00 | 0.00 | 54 | 1010.8 |
| 20260506144008 | 68 | 120 | 6.0 | 10.0 | 0.00 | 0.00 | 0.00 | 55 | 1011.0 |
| 20260506143008 | 68 | 95 | 8.0 | 12.0 | 0.00 | 0.00 | 0.00 | 55 | 1010.8 |
| 20260506142008 | 67 | 119 | 7.0 | 13.0 | 0.00 | 0.00 | 0.00 | 57 | 1011.0 |
| 20260506141007 | 67 | 115 | 9.0 | 15.0 | 0.00 | 0.00 | 0.00 | 56 | 1010.9 |
| 20260506140012 | 67 | 114 | 9.0 | 14.0 | 0.00 | 0.00 | 0.00 | 56 | 1010.9 |
| 20260506135007 | 67 | 105 | 11.0 | 17.0 | 0.00 | 0.00 | 0.00 | 57 | 1010.9 |
| 20260506134008 | 68 | 113 | 12.0 | 19.0 | 0.00 | 0.00 | 0.00 | 56 | 1010.9 |
| 20260506133008 | 69 | 114 | 9.0 | 15.0 | 0.00 | 0.00 | 0.00 | 54 | 1010.9 |
| 20260506132007 | 69 | 122 | 10.0 | 16.0 | 0.00 | 0.00 | 0.00 | 51 | 1011.0 |
| 20260506131008 | 70 | 117 | 11.0 | 16.0 | 0.00 | 0.00 | 0.00 | 47 | 1011.0 |
| 20260506130024 | 71 | 128 | 11.0 | 17.0 | 0.00 | 0.00 | 0.00 | 46 | 1011.1 |
| 20260506125006 | 70 | 131 | 12.0 | 18.0 | 0.00 | 0.00 | 0.00 | 48 | 1011.1 |
| 20260506124008 | 70 | 124 | 12.0 | 19.0 | 0.00 | 0.00 | 0.00 | 49 | 1011.2 |